createdAt,value
2023-01-08T00:01:36.912Z,1.70
2023-01-08T00:03:39.092Z,1.70
2023-01-08T00:05:41.252Z,1.52
2023-01-08T00:07:42.947Z,1.63
2023-01-08T00:09:44.652Z,1.77
2023-01-08T00:11:49.133Z,1.92
2023-01-08T00:13:50.985Z,1.80
2023-01-08T00:15:53.188Z,2.00
2023-01-08T00:17:54.843Z,1.75
2023-01-08T00:19:56.449Z,1.60
2023-01-08T00:21:58.066Z,1.70
2023-01-08T00:23:59.701Z,1.80
2023-01-08T00:26:02.837Z,1.58
2023-01-08T00:28:04.561Z,1.80
2023-01-08T00:30:06.692Z,1.70
2023-01-08T00:32:08.353Z,1.48
2023-01-08T00:34:10.069Z,1.48
2023-01-08T00:36:17.145Z,1.73
2023-01-08T00:38:18.866Z,1.40
2023-01-08T00:40:20.632Z,1.83
2023-01-08T00:42:22.398Z,1.48
2023-01-08T00:44:24.054Z,1.45
2023-01-08T00:46:25.701Z,1.80
2023-01-08T00:48:27.536Z,1.80
2023-01-08T00:50:29.167Z,1.73
2023-01-08T00:52:30.809Z,1.70
2023-01-08T00:54:32.593Z,1.75
2023-01-08T00:56:34.246Z,1.65
2023-01-08T00:58:36.345Z,2.15
2023-01-08T01:00:38.449Z,1.88
2023-01-08T01:02:40.781Z,1.67
2023-01-08T01:04:42.477Z,1.60
2023-01-08T01:06:44.208Z,1.65
2023-01-08T01:08:45.873Z,1.65
2023-01-08T01:10:47.470Z,1.50
2023-01-08T01:12:49.682Z,1.48
2023-01-08T01:14:51.580Z,1.48
2023-01-08T01:16:53.356Z,1.40
2023-01-08T01:18:56.646Z,1.45
2023-01-08T01:20:58.333Z,1.90
2023-01-08T01:23:00.107Z,1.40
2023-01-08T01:25:01.920Z,1.48
2023-01-08T01:27:03.676Z,1.65
2023-01-08T01:29:05.854Z,1.30
2023-01-08T01:31:09.594Z,1.67
2023-01-08T01:33:11.304Z,1.42
2023-01-08T01:35:12.979Z,1.70
2023-01-08T01:37:15.003Z,1.55
2023-01-08T01:39:16.653Z,1.38
2023-01-08T01:41:21.680Z,1.65
2023-01-08T01:43:38.701Z,1.58
2023-01-08T01:45:41.044Z,1.50
2023-01-08T01:47:43.944Z,1.67
2023-01-08T01:49:56.182Z,1.45
2023-01-08T01:52:02.358Z,1.52
2023-01-08T01:54:07.495Z,1.50
2023-01-08T01:56:09.999Z,1.55
2023-01-08T01:58:13.594Z,1.50
2023-01-08T02:00:15.698Z,1.58
2023-01-08T02:02:17.539Z,1.52
2023-01-08T02:04:19.343Z,1.50
2023-01-08T02:06:31.891Z,1.50
2023-01-08T02:08:48.725Z,1.65
2023-01-08T02:11:09.794Z,1.77
2023-01-08T02:13:26.415Z,1.75
2023-01-08T02:16:00.845Z,1.50
2023-01-08T02:18:17.123Z,1.60
2023-01-08T02:20:27.335Z,1.80
2023-01-08T02:23:07.708Z,1.40
2023-01-08T02:25:12.036Z,1.40
2023-01-08T02:27:16.105Z,1.48
2023-01-08T02:29:25.050Z,1.60
2023-01-08T02:31:29.356Z,1.70
2023-01-08T02:33:32.437Z,1.90
2023-01-08T02:35:44.808Z,1.83
2023-01-08T02:37:46.617Z,1.48
2023-01-08T02:39:56.499Z,1.77
2023-01-08T02:42:14.135Z,1.55
2023-01-08T02:44:23.051Z,1.50
2023-01-08T02:46:29.978Z,1.77
2023-01-08T02:48:43.284Z,1.58
2023-01-08T02:51:00.581Z,1.40
2023-01-08T02:53:06.847Z,1.50
2023-01-08T02:55:10.141Z,1.50
2023-01-08T02:57:14.903Z,1.50
2023-01-08T02:59:18.688Z,1.60
2023-01-08T03:01:22.834Z,1.48
2023-01-08T03:03:27.673Z,1.70
2023-01-08T03:05:29.395Z,1.67
2023-01-08T03:07:31.362Z,1.30
2023-01-08T03:09:33.140Z,1.50
2023-01-08T03:11:51.097Z,1.60
2023-01-08T03:14:04.631Z,1.50
2023-01-08T03:16:13.078Z,1.60
2023-01-08T03:18:19.220Z,1.52
2023-01-08T03:20:23.400Z,1.33
2023-01-08T03:22:25.548Z,1.30
2023-01-08T03:24:31.602Z,1.60
2023-01-08T03:26:35.246Z,1.23
2023-01-08T03:28:46.101Z,1.40
2023-01-08T03:30:49.557Z,1.60
2023-01-08T03:32:54.282Z,1.35
2023-01-08T03:34:57.615Z,1.42
2023-01-08T03:37:02.781Z,1.60
2023-01-08T03:39:18.193Z,1.33
2023-01-08T03:41:22.850Z,1.50
2023-01-08T03:43:25.208Z,1.38
2023-01-08T03:45:30.240Z,1.30
2023-01-08T03:47:34.381Z,1.25
2023-01-08T03:49:38.132Z,1.40
2023-01-08T03:51:44.843Z,1.73
2023-01-08T03:53:47.251Z,1.20
2023-01-08T03:55:48.894Z,1.40
2023-01-08T03:57:50.492Z,1.45
2023-01-08T03:59:52.111Z,1.30
2023-01-08T04:01:53.880Z,1.42
2023-01-08T04:03:55.775Z,1.40
2023-01-08T04:06:00.004Z,1.52
2023-01-08T04:08:01.615Z,1.55
2023-01-08T04:10:03.557Z,1.52
2023-01-08T04:12:05.580Z,1.52
2023-01-08T04:14:07.275Z,1.30
2023-01-08T04:16:08.994Z,1.27
2023-01-08T04:18:10.637Z,1.55
2023-01-08T04:20:12.430Z,1.80
2023-01-08T04:22:14.121Z,1.42
2023-01-08T04:24:15.792Z,1.50
2023-01-08T04:26:17.441Z,1.20
2023-01-08T04:28:19.468Z,1.42
2023-01-08T04:30:21.081Z,1.33
2023-01-08T04:32:22.777Z,1.10
2023-01-08T04:34:24.392Z,1.60
2023-01-08T04:36:26.083Z,1.38
2023-01-08T04:38:27.736Z,1.35
2023-01-08T04:40:29.529Z,1.48
2023-01-08T04:42:31.142Z,1.55
2023-01-08T04:44:32.765Z,1.42
2023-01-08T04:46:34.466Z,1.63
2023-01-08T04:48:36.613Z,1.40
2023-01-08T04:50:38.225Z,1.50
2023-01-08T04:52:39.894Z,1.25
2023-01-08T04:54:41.516Z,1.50
2023-01-08T04:56:43.242Z,1.33
2023-01-08T04:58:44.899Z,1.48
2023-01-08T05:00:46.824Z,1.70
2023-01-08T05:02:48.607Z,1.45
2023-01-08T05:04:50.393Z,1.20
2023-01-08T05:06:52.021Z,1.35
2023-01-08T05:08:53.738Z,1.40
2023-01-08T05:10:59.135Z,1.38
2023-01-08T05:13:00.968Z,1.23
2023-01-08T05:15:02.721Z,1.30
2023-01-08T05:17:04.355Z,1.48
2023-01-08T05:19:06.030Z,1.50
2023-01-08T05:21:07.895Z,1.25
2023-01-08T05:23:09.589Z,1.33
2023-01-08T05:25:11.235Z,1.70
2023-01-08T05:27:12.833Z,1.30
2023-01-08T05:29:14.513Z,1.40
2023-01-08T05:31:16.872Z,1.50
2023-01-08T05:33:18.940Z,1.17
2023-01-08T05:35:20.594Z,1.33
2023-01-08T05:37:22.257Z,1.23
2023-01-08T05:39:23.912Z,1.20
2023-01-08T05:41:25.666Z,1.30
2023-01-08T05:43:27.414Z,1.23
2023-01-08T05:45:29.156Z,1.30
2023-01-08T05:47:31.849Z,1.30
2023-01-08T05:49:33.486Z,1.30
2023-01-08T05:51:35.163Z,1.60
2023-01-08T05:53:36.891Z,1.25
2023-01-08T05:55:38.561Z,1.23
2023-01-08T05:57:40.217Z,1.50
2023-01-08T05:59:41.825Z,1.13
2023-01-08T06:01:43.590Z,1.05
2023-01-08T06:03:45.249Z,1.13
2023-01-08T06:05:46.841Z,1.30
2023-01-08T06:07:48.463Z,1.17
2023-01-08T06:09:50.109Z,1.00
2023-01-08T06:11:52.978Z,1.10
2023-01-08T06:13:54.607Z,1.10
2023-01-08T06:15:59.729Z,1.10
2023-01-08T06:18:05.015Z,1.02
2023-01-08T06:20:07.389Z,1.30
2023-01-08T06:22:09.006Z,1.05
2023-01-08T06:24:10.618Z,1.10
2023-01-08T06:26:12.253Z,1.13
2023-01-08T06:28:13.923Z,1.10
2023-01-08T06:30:15.799Z,1.17
2023-01-08T06:32:17.488Z,1.08
2023-01-08T06:34:19.361Z,0.93
2023-01-08T06:36:21.143Z,1.23
2023-01-08T06:38:22.916Z,1.00
2023-01-08T06:40:24.843Z,1.10
2023-01-08T06:42:26.630Z,0.90
2023-01-08T06:44:28.283Z,1.00
2023-01-08T06:46:29.991Z,1.00
2023-01-08T06:48:31.861Z,0.90
2023-01-08T06:50:34.543Z,0.93
2023-01-08T06:52:36.170Z,1.05
2023-01-08T06:54:37.770Z,1.00
2023-01-08T06:56:52.576Z,1.08
2023-01-08T06:58:55.260Z,1.10
2023-01-08T07:00:58.788Z,1.13
2023-01-08T07:03:01.080Z,1.00
2023-01-08T07:05:02.814Z,0.90
2023-01-08T07:07:04.469Z,0.85
2023-01-08T07:09:06.196Z,0.75
2023-01-08T07:11:07.895Z,1.00
2023-01-08T07:13:09.712Z,1.00
2023-01-08T07:15:11.563Z,1.10
2023-01-08T07:17:13.214Z,0.70
2023-01-08T07:19:14.904Z,0.98
2023-01-08T07:21:16.800Z,0.88
2023-01-08T07:23:18.519Z,0.90
2023-01-08T07:25:20.165Z,0.90
2023-01-08T07:27:21.954Z,0.80
2023-01-08T07:29:23.654Z,0.98
2023-01-08T07:31:25.546Z,0.95
2023-01-08T07:33:27.264Z,0.80
2023-01-08T07:35:29.378Z,1.00
2023-01-08T07:37:31.021Z,0.80
2023-01-08T07:39:32.768Z,0.90
2023-01-08T07:41:34.417Z,0.90
2023-01-08T07:43:36.149Z,0.88
2023-01-08T07:45:37.936Z,0.93
2023-01-08T07:47:39.659Z,0.80
2023-01-08T07:49:41.317Z,0.98
2023-01-08T07:51:42.951Z,0.65
2023-01-08T07:53:44.660Z,0.90
2023-01-08T07:55:47.920Z,0.70
2023-01-08T07:57:49.549Z,0.90
2023-01-08T07:59:51.179Z,0.73
2023-01-08T08:01:52.891Z,0.63
2023-01-08T08:03:54.559Z,0.90
2023-01-08T08:05:56.227Z,0.90
2023-01-08T08:07:57.883Z,0.88
2023-01-08T08:09:59.544Z,0.68
2023-01-08T08:12:01.178Z,0.80
2023-01-08T08:14:02.827Z,0.75
2023-01-08T08:16:05.100Z,0.70
2023-01-08T08:18:07.167Z,0.80
2023-01-08T08:20:09.845Z,0.77
2023-01-08T08:22:12.536Z,0.70
2023-01-08T08:24:14.174Z,0.75
2023-01-08T08:26:15.811Z,0.75
2023-01-08T08:28:17.736Z,0.75
2023-01-08T08:30:19.419Z,0.80
2023-01-08T08:32:21.055Z,0.70
2023-01-08T08:34:22.878Z,0.60
2023-01-08T08:36:31.024Z,0.85
2023-01-08T08:38:32.872Z,0.70
2023-01-08T08:40:34.493Z,0.77
2023-01-08T08:42:36.146Z,0.80
2023-01-08T08:44:37.783Z,0.80
2023-01-08T08:46:39.465Z,0.77
2023-01-08T08:48:41.412Z,0.85
2023-01-08T08:50:43.460Z,0.63
2023-01-08T08:52:45.873Z,0.65
2023-01-08T08:54:47.520Z,0.60
2023-01-08T08:56:49.240Z,0.70
2023-01-08T08:58:52.336Z,0.77
2023-01-08T09:00:53.998Z,0.70
2023-01-08T09:02:55.766Z,0.50
2023-01-08T09:04:57.441Z,0.60
2023-01-08T09:06:59.972Z,0.90
2023-01-08T09:09:01.740Z,0.45
2023-01-08T09:11:03.445Z,0.68
2023-01-08T09:13:05.372Z,0.70
2023-01-08T09:15:07.571Z,0.60
2023-01-08T09:17:09.217Z,0.63
2023-01-08T09:19:11.019Z,0.60
2023-01-08T09:21:12.772Z,0.70
2023-01-08T09:23:14.507Z,0.60
2023-01-08T09:25:16.609Z,0.55
2023-01-08T09:27:18.251Z,0.80
2023-01-08T09:29:20.263Z,0.63
2023-01-08T09:31:22.004Z,0.60
2023-01-08T09:33:23.616Z,0.60
2023-01-08T09:35:25.721Z,0.63
2023-01-08T09:37:27.521Z,0.70
2023-01-08T09:39:29.132Z,0.65
2023-01-08T09:41:36.773Z,0.60
2023-01-08T09:43:44.866Z,0.50
2023-01-08T09:45:52.378Z,0.65
2023-01-08T09:47:55.704Z,0.90
2023-01-08T09:50:01.896Z,0.50
2023-01-08T09:52:03.816Z,0.75
2023-01-08T09:54:07.518Z,0.60
2023-01-08T09:56:19.125Z,0.50
2023-01-08T09:59:03.725Z,0.70
2023-01-08T10:01:06.574Z,0.60
2023-01-08T10:03:12.235Z,0.60
2023-01-08T10:05:18.753Z,0.60
2023-01-08T10:07:23.150Z,0.88
2023-01-08T10:09:28.044Z,0.50
2023-01-08T10:11:40.781Z,0.60
2023-01-08T10:13:50.860Z,0.65
2023-01-08T10:15:52.580Z,0.70
2023-01-08T10:18:12.031Z,0.50
2023-01-08T10:20:25.455Z,0.70
2023-01-08T10:22:32.288Z,0.60
2023-01-08T10:24:35.990Z,0.60
2023-01-08T10:26:38.471Z,0.50
2023-01-08T10:28:40.127Z,0.60
2023-01-08T10:30:41.830Z,0.65
2023-01-08T10:32:48.478Z,0.70
2023-01-08T10:34:55.729Z,0.50
2023-01-08T10:36:57.404Z,0.80
2023-01-08T10:39:03.325Z,0.60
2023-01-08T10:41:10.419Z,0.70
2023-01-08T10:43:18.198Z,0.65
2023-01-08T10:45:25.873Z,0.68
2023-01-08T10:47:30.758Z,0.85
2023-01-08T10:49:41.828Z,0.65
2023-01-08T10:53:54.341Z,0.70
2023-01-08T10:56:00.985Z,0.70
2023-01-08T10:58:13.481Z,0.68
2023-01-08T11:00:34.365Z,0.60
2023-01-08T11:02:40.622Z,0.70
2023-01-08T11:04:42.865Z,0.70
2023-01-08T11:06:47.260Z,0.70
2023-01-08T11:08:54.420Z,0.50
2023-01-08T11:13:07.290Z,0.70
2023-01-08T11:15:15.023Z,0.60
2023-01-08T11:17:16.827Z,0.80
2023-01-08T11:19:24.221Z,0.52
2023-01-08T11:21:30.735Z,0.63
2023-01-08T11:23:32.472Z,0.60
2023-01-08T11:25:35.940Z,0.60
2023-01-08T11:27:44.123Z,0.85
2023-01-08T11:29:50.927Z,0.60
2023-01-08T11:32:29.037Z,0.60
2023-01-08T11:35:05.433Z,0.70
2023-01-08T11:37:27.634Z,0.50
2023-01-08T11:39:29.351Z,0.70
2023-01-08T11:41:57.310Z,0.60
2023-01-08T11:44:20.085Z,0.77
2023-01-08T11:46:33.164Z,0.70
2023-01-08T11:49:05.453Z,0.80
2023-01-08T11:51:28.985Z,0.80
2023-01-08T11:53:59.210Z,0.90
2023-01-08T11:56:16.093Z,0.57
2023-01-08T11:59:25.277Z,0.60
2023-01-08T12:01:51.983Z,0.60
2023-01-08T12:03:59.320Z,0.80
2023-01-08T12:06:36.909Z,0.65
2023-01-08T12:09:03.704Z,0.60
2023-01-08T12:11:28.158Z,0.80
2023-01-08T12:14:20.634Z,0.70
2023-01-08T12:17:01.880Z,0.77
2023-01-08T12:19:37.309Z,0.77
2023-01-08T12:22:18.337Z,0.60
2023-01-08T12:24:44.903Z,0.47
2023-01-08T12:26:54.159Z,0.65
2023-01-08T12:29:04.573Z,0.60
2023-01-08T12:31:27.504Z,0.63
2023-01-08T12:33:37.767Z,0.65
2023-01-08T12:35:44.764Z,0.60
2023-01-08T12:37:55.216Z,0.70
2023-01-08T12:40:22.250Z,0.57
2023-01-08T12:42:28.265Z,0.63
2023-01-08T12:44:32.261Z,0.65
2023-01-08T12:46:35.679Z,0.60
2023-01-08T12:48:38.916Z,0.50
2023-01-08T12:50:58.287Z,0.40
2023-01-08T12:53:18.409Z,0.57
2023-01-08T12:55:30.306Z,0.47
2023-01-08T12:58:02.658Z,0.50
2023-01-08T13:00:11.586Z,0.60
2023-01-08T13:02:49.440Z,0.63
2023-01-08T13:04:51.159Z,0.60
2023-01-08T13:07:03.632Z,0.60
2023-01-08T13:09:05.583Z,0.50
2023-01-08T13:11:08.466Z,0.52
2023-01-08T13:13:33.490Z,0.80
2023-01-08T13:15:36.331Z,0.70
2023-01-08T13:17:38.262Z,0.60
2023-01-08T13:19:44.547Z,0.70
2023-01-08T13:21:53.331Z,0.65
2023-01-08T13:24:01.793Z,0.45
2023-01-08T13:26:05.916Z,0.60
2023-01-08T13:28:26.965Z,0.70
2023-01-08T13:30:48.909Z,0.60
2023-01-08T13:32:50.541Z,0.57
2023-01-08T13:35:14.147Z,0.50
2023-01-08T13:37:27.956Z,0.65
2023-01-08T13:39:35.392Z,0.82
2023-01-08T13:41:56.705Z,0.63
2023-01-08T13:46:16.495Z,0.60
2023-01-08T13:48:23.666Z,0.63
2023-01-08T13:50:28.695Z,0.75
2023-01-08T13:52:32.670Z,0.50
2023-01-08T13:54:39.017Z,0.50
2023-01-08T13:56:42.963Z,0.60
2023-01-08T13:58:51.277Z,0.57
2023-01-08T14:00:55.798Z,0.60
2023-01-08T14:02:57.658Z,0.80
2023-01-08T14:05:01.640Z,0.60
2023-01-08T14:07:16.022Z,0.57
2023-01-08T14:09:26.688Z,0.60
2023-01-08T14:11:43.057Z,0.52
2023-01-08T14:13:44.938Z,0.60
2023-01-08T14:15:47.781Z,0.60
2023-01-08T14:17:49.914Z,0.60
2023-01-08T14:19:51.866Z,0.60
2023-01-08T14:21:58.746Z,0.80
2023-01-08T14:24:00.613Z,0.50
2023-01-08T14:26:06.383Z,0.60
2023-01-08T14:28:22.577Z,0.60
2023-01-08T14:30:25.002Z,0.50
2023-01-08T14:32:29.402Z,0.63
2023-01-08T14:34:32.212Z,0.60
2023-01-08T14:36:34.105Z,0.50
2023-01-08T14:38:35.768Z,0.80
2023-01-08T14:40:41.562Z,0.60
2023-01-08T14:42:50.086Z,0.85
2023-01-08T14:44:58.750Z,0.57
2023-01-08T14:47:00.691Z,0.60
2023-01-08T14:49:02.541Z,0.70
2023-01-08T14:51:11.423Z,0.60
2023-01-08T14:53:25.885Z,0.80
2023-01-08T14:55:29.585Z,0.60
2023-01-08T14:57:31.568Z,0.63
2023-01-08T14:59:37.782Z,0.60
2023-01-08T15:01:39.589Z,0.65
2023-01-08T15:03:44.008Z,0.90
2023-01-08T15:05:49.866Z,0.52
2023-01-08T15:08:03.469Z,0.50
2023-01-08T15:10:32.745Z,0.57
2023-01-08T15:12:34.405Z,0.90
2023-01-08T15:14:37.177Z,0.80
2023-01-08T15:16:42.492Z,0.75
2023-01-08T15:19:15.163Z,1.10
2023-01-08T15:21:19.218Z,1.05
2023-01-08T15:23:39.322Z,1.35
2023-01-08T15:25:44.885Z,1.75
2023-01-08T15:28:01.485Z,1.42
2023-01-08T15:30:04.883Z,1.35
2023-01-08T15:32:12.291Z,1.70
2023-01-08T15:34:19.558Z,1.20
2023-01-08T15:36:21.530Z,1.40
2023-01-08T15:38:23.978Z,1.80
2023-01-08T15:40:25.687Z,1.48
2023-01-08T15:42:51.096Z,2.17
2023-01-08T15:44:52.713Z,1.80
2023-01-08T15:46:54.526Z,1.55
2023-01-08T15:48:56.544Z,2.13
2023-01-08T15:50:58.207Z,3.17
2023-01-08T15:53:01.018Z,1.88
2023-01-08T15:55:02.946Z,2.60
2023-01-08T15:57:04.729Z,2.30
2023-01-08T15:59:06.544Z,2.03
2023-01-08T16:01:09.008Z,2.65
2023-01-08T16:03:13.230Z,2.00
2023-01-08T16:05:17.469Z,2.08
2023-01-08T16:07:19.539Z,2.28
2023-01-08T16:09:21.260Z,2.42
2023-01-08T16:11:23.174Z,2.38
2023-01-08T16:13:24.847Z,2.15
2023-01-08T16:15:27.908Z,1.73
2023-01-08T16:17:30.147Z,2.63
2023-01-08T16:19:32.453Z,1.83
2023-01-08T16:21:34.163Z,2.13
2023-01-08T16:23:37.369Z,2.42
2023-01-08T16:25:39.615Z,2.45
2023-01-08T16:27:42.971Z,2.03
2023-01-08T16:29:44.660Z,1.98
2023-01-08T16:31:47.855Z,2.08
2023-01-08T16:33:49.512Z,1.73
2023-01-08T16:36:02.373Z,1.50
2023-01-08T16:38:04.070Z,1.45
2023-01-08T16:40:06.504Z,1.52
2023-01-08T16:42:09.622Z,1.50
2023-01-08T16:44:21.057Z,1.88
2023-01-08T16:46:22.855Z,1.70
2023-01-08T16:48:24.437Z,2.03
2023-01-08T16:50:26.071Z,1.27
2023-01-08T16:52:27.705Z,1.40
2023-01-08T16:54:29.383Z,1.67
2023-01-08T16:56:31.056Z,1.33
2023-01-08T16:58:34.903Z,2.38
2023-01-08T17:00:38.230Z,1.75
2023-01-08T17:02:39.992Z,2.15
2023-01-08T17:04:41.672Z,2.15
2023-01-08T17:06:43.348Z,1.60
2023-01-08T17:08:45.092Z,1.88
2023-01-08T17:10:46.996Z,2.00
2023-01-08T17:12:49.009Z,1.98
2023-01-08T17:14:51.043Z,1.95
2023-01-08T17:16:52.785Z,2.17
2023-01-08T17:18:54.430Z,1.98
2023-01-08T17:20:56.229Z,1.40
2023-01-08T17:22:58.806Z,1.45
2023-01-08T17:25:00.575Z,2.10
2023-01-08T17:27:02.275Z,2.08
2023-01-08T17:29:04.038Z,2.10
2023-01-08T17:31:11.328Z,1.90
2023-01-08T17:33:14.730Z,1.77
2023-01-08T17:35:16.529Z,1.98
2023-01-08T17:37:18.121Z,1.77
2023-01-08T17:39:19.789Z,1.65
2023-01-08T17:41:41.332Z,2.00
2023-01-08T17:43:42.925Z,2.13
2023-01-08T17:45:44.651Z,2.17
2023-01-08T17:47:46.346Z,1.80
2023-01-08T17:49:57.680Z,1.60
2023-01-08T17:51:59.655Z,1.77
2023-01-08T17:54:01.764Z,1.95
2023-01-08T17:56:05.648Z,2.55
2023-01-08T17:58:07.255Z,1.88
2023-01-08T18:00:09.712Z,1.98
2023-01-08T18:02:15.741Z,2.00
2023-01-08T18:04:17.843Z,2.03
2023-01-08T18:06:19.471Z,1.83
2023-01-08T18:08:21.125Z,1.58
2023-01-08T18:10:22.813Z,2.13
2023-01-08T18:12:24.468Z,2.22
2023-01-08T18:14:26.138Z,2.05
2023-01-08T18:16:29.441Z,3.00
2023-01-08T18:18:31.092Z,2.50
2023-01-08T18:20:32.836Z,2.45
2023-01-08T18:22:34.508Z,2.42
2023-01-08T18:24:36.143Z,2.20
2023-01-08T18:26:37.842Z,1.88
2023-01-08T18:28:39.631Z,2.20
2023-01-08T18:30:42.913Z,2.42
2023-01-08T18:32:44.574Z,2.00
2023-01-08T18:34:48.268Z,1.73
2023-01-08T18:36:49.951Z,2.15
2023-01-08T18:38:52.940Z,2.53
2023-01-08T18:40:58.162Z,2.30
2023-01-08T18:42:59.788Z,2.33
2023-01-08T18:45:02.883Z,2.08
2023-01-08T18:47:04.574Z,1.90
2023-01-08T18:49:06.752Z,2.20
2023-01-08T18:51:08.436Z,2.35
2023-01-08T18:53:10.442Z,1.63
2023-01-08T18:55:12.533Z,2.08
2023-01-08T18:57:14.281Z,2.03
2023-01-08T18:59:15.935Z,1.80
2023-01-08T19:01:17.734Z,2.22
2023-01-08T19:03:19.724Z,2.00
2023-01-08T19:05:22.772Z,2.17
2023-01-08T19:07:25.682Z,2.45
2023-01-08T19:09:27.817Z,2.47
2023-01-08T19:11:29.550Z,2.00
2023-01-08T19:13:31.241Z,2.33
2023-01-08T19:15:33.121Z,1.70
2023-01-08T19:17:34.960Z,1.83
2023-01-08T19:19:37.179Z,2.10
2023-01-08T19:21:38.880Z,1.88
2023-01-08T19:23:41.063Z,2.15
2023-01-08T19:25:43.485Z,2.35
2023-01-08T19:27:45.393Z,2.00
2023-01-08T19:29:47.100Z,1.65
2023-01-08T19:31:48.864Z,2.20
2023-01-08T19:33:52.702Z,1.73
2023-01-08T19:35:54.385Z,2.10
2023-01-08T19:37:56.031Z,1.70
2023-01-08T19:40:01.319Z,2.22
2023-01-08T19:42:21.562Z,1.90
2023-01-08T19:44:23.345Z,2.20
2023-01-08T19:46:25.320Z,1.88
2023-01-08T19:48:26.965Z,2.15
2023-01-08T19:50:30.400Z,2.15
2023-01-08T19:52:32.074Z,1.85
2023-01-08T19:54:33.723Z,1.70
2023-01-08T19:56:35.405Z,1.90
2023-01-08T19:58:37.728Z,1.90
2023-01-08T20:00:40.607Z,1.80
2023-01-08T20:02:42.338Z,2.22
2023-01-08T20:04:44.090Z,2.20
2023-01-08T20:06:45.754Z,2.03
2023-01-08T20:08:48.321Z,2.28
2023-01-08T20:10:49.963Z,1.67
2023-01-08T20:12:51.637Z,2.20
2023-01-08T20:14:53.334Z,1.75
2023-01-08T20:16:55.969Z,1.77
2023-01-08T20:19:03.336Z,2.05
2023-01-08T20:21:07.895Z,1.95
2023-01-08T20:23:11.313Z,1.90
2023-01-08T20:25:13.085Z,2.08
2023-01-08T20:27:15.504Z,1.80
2023-01-08T20:29:18.036Z,1.88
2023-01-08T20:31:21.265Z,1.98
2023-01-08T20:33:23.028Z,1.88
2023-01-08T20:35:24.729Z,1.90
2023-01-08T20:37:26.457Z,1.83
2023-01-08T20:39:28.147Z,1.77
2023-01-08T20:41:30.200Z,1.77
2023-01-08T20:43:32.168Z,1.75
2023-01-08T20:45:33.835Z,1.45
2023-01-08T20:47:35.770Z,2.00
2023-01-08T20:49:37.389Z,1.85
2023-01-08T20:51:46.262Z,1.85
2023-01-08T20:53:53.135Z,1.88
2023-01-08T20:55:54.929Z,1.80
2023-01-08T20:57:56.604Z,2.00
2023-01-08T20:59:58.244Z,2.13
2023-01-08T21:01:59.881Z,1.90
2023-01-08T21:04:03.402Z,1.73
2023-01-08T21:06:07.424Z,1.85
2023-01-08T21:08:09.124Z,1.73
2023-01-08T21:10:11.793Z,2.03
2023-01-08T21:12:15.006Z,1.30
2023-01-08T21:14:16.680Z,2.05
2023-01-08T21:16:28.419Z,1.58
2023-01-08T21:18:30.257Z,1.33
2023-01-08T21:20:31.865Z,1.83
2023-01-08T21:22:33.492Z,2.00
2023-01-08T21:24:35.162Z,1.95
2023-01-08T21:26:37.829Z,1.58
2023-01-08T21:28:40.646Z,1.40
2023-01-08T21:30:42.229Z,1.25
2023-01-08T21:32:43.832Z,1.70
2023-01-08T21:34:45.865Z,1.63
2023-01-08T21:36:47.502Z,1.60
2023-01-08T21:38:50.109Z,1.40
2023-01-08T21:41:02.176Z,1.38
2023-01-08T21:43:22.713Z,1.48
2023-01-08T21:45:28.083Z,1.40
2023-01-08T21:47:29.833Z,1.52
2023-01-08T21:49:31.850Z,1.40
2023-01-08T21:51:52.309Z,1.52
2023-01-08T21:53:53.984Z,1.40
2023-01-08T21:55:57.036Z,1.10
2023-01-08T21:57:58.803Z,1.25
2023-01-08T22:00:00.516Z,1.52
2023-01-08T22:02:02.860Z,1.63
2023-01-08T22:04:04.642Z,1.30
2023-01-08T22:06:06.759Z,1.10
2023-01-08T22:08:09.258Z,1.70
2023-01-08T22:10:11.687Z,1.65
2023-01-08T22:12:14.840Z,1.42
2023-01-08T22:14:17.087Z,1.40
2023-01-08T22:16:18.804Z,1.30
2023-01-08T22:18:20.440Z,1.40
2023-01-08T22:20:22.145Z,1.63
2023-01-08T22:22:24.212Z,1.40
2023-01-08T22:24:25.882Z,1.33
2023-01-08T22:26:27.544Z,1.35
2023-01-08T22:28:29.210Z,1.38
2023-01-08T22:30:31.011Z,1.30
2023-01-08T22:32:32.755Z,1.60
2023-01-08T22:34:34.998Z,1.50
2023-01-08T22:36:36.614Z,1.30
2023-01-08T22:38:38.781Z,1.40
2023-01-08T22:40:40.636Z,1.50
2023-01-08T22:42:42.295Z,1.20
2023-01-08T22:44:44.024Z,1.35
2023-01-08T22:46:45.697Z,1.50
2023-01-08T22:48:47.461Z,1.10
2023-01-08T22:50:49.327Z,1.30
2023-01-08T22:52:51.084Z,1.20
2023-01-08T22:54:54.723Z,1.10
2023-01-08T22:56:56.369Z,1.42
2023-01-08T22:58:58.296Z,1.48
2023-01-08T23:00:59.980Z,1.30
2023-01-08T23:03:01.733Z,1.30
2023-01-08T23:05:04.115Z,1.17
2023-01-08T23:07:05.728Z,1.50
2023-01-08T23:09:07.656Z,1.20
2023-01-08T23:11:11.444Z,1.30
2023-01-08T23:13:13.048Z,1.30
2023-01-08T23:15:14.737Z,1.02
2023-01-08T23:17:16.502Z,1.20
2023-01-08T23:19:18.141Z,1.33
2023-01-08T23:21:22.033Z,1.20
2023-01-08T23:23:23.643Z,1.20
2023-01-08T23:25:27.310Z,1.13
2023-01-08T23:27:33.424Z,1.27
2023-01-08T23:29:35.041Z,1.10
2023-01-08T23:31:38.191Z,1.30
2023-01-08T23:33:40.074Z,1.20
2023-01-08T23:35:42.581Z,1.20
2023-01-08T23:37:44.168Z,1.10
2023-01-08T23:39:45.829Z,1.05
2023-01-08T23:41:47.462Z,1.10
2023-01-08T23:43:50.071Z,1.17
2023-01-08T23:45:52.788Z,1.27
2023-01-08T23:47:54.402Z,1.38
2023-01-08T23:49:56.040Z,1.17
2023-01-08T23:51:57.837Z,1.10
2023-01-08T23:53:59.865Z,1.20
2023-01-08T23:56:01.523Z,1.02
2023-01-08T23:58:03.458Z,0.90
